Colton, WA

3:46 AM PDT on August 31, 2014 (GMT -0700)
Town of Colton | Change Station
CLOSE
Current Station
Personal Weather Station
Location: Colton, WA
Elevation: 2579 ft
Nearby Weather Stations

Elev 2579 ft 46.57 °N, 117.12 °W | Updated 1 minute ago

Overcast
Overcast
56.5 °F
Feels Like 56.5 °F
N
6.0
Wind Variable Wind from WSW
Gusts 8.0 mph

Today
High -- | Low -- °F
--% Chance of Precip.
Yesterday
High -- | Low -- °F
Precip. -- in
6:07 AM 7:29 PM
Waxing Crescent, 30% visible
Pressure 29.91 in
Visibility 10.0 miles
Clouds Overcast 8000 ft
Dew Point 43 °F
Humidity 61%
Rainfall 0.00 in
Snow Depth Not available.
UV 0 out of 12
Pollen 7.40 out of 12
Air Quality Not available.
Flu Activity Not available.
METAR KPUW 310953Z AUTO 24013KT 10SM OVC080 14/08 A2994 RMK AO2 SLP129 T01440078

More Conditions Fewer Conditions

Pressure 29.91 in
Visibility 10.0 miles
Clouds Overcast 8000 ft
Dew Point 43 °F
Humidity 61%
Rainfall 0.00 in
Snow Depth Not available.
UV 0 out of 12
Pollen 7.40 out of 12
Air Quality Not available.
Flu Activity Not available.
METAR KPUW 310953Z AUTO 24013KT 10SM OVC080 14/08 A2994 RMK AO2 SLP129 T01440078

More Conditions Fewer Conditions

10-Day Weather Forecast

Almanac

Astronomy

Aug. 31, 2014 Rise Set
Actual Time 6:07 AM PDT 7:29 PM PDT
Civil Twilight 5:35 AM PDT 8:00 PM PDT
Nautical Twilight 4:58 AM PDT 8:38 PM PDT
Astronomical Twilight 4:17 AM PDT 9:18 PM PDT
Moon 12:20 PM PDT 10:24 PM PDT
Length of Visible Light 14h 24m
Length of Day
13h 21m
Tomorrow will be 3m 11s shorter.
Waxing Crescent, 30% of the Moon is Illuminated
Today
Waxing Crescent
Sep 2
First Quarter
Sep 8
Full
Sep 15
Last Quarter
Sep 24
New

Today's Extremes

State Highs State Lows

Community

WunderPhotos

Upload Photos

1,748,837 photos uploaded!

Nearby

Snow Depth

Station Depth Elevation
Sourdough Gulch 0 in 4000 ft
Spruce Springs 0 in 5700 ft
Touchet 1 in 5530 ft
Quartz Peak 1 in 4700 ft
Bunchgrass Meadow 0 in 5000 ft

Earthquake Activity

City Distance Mag. Time & Date
No recent earthquake activity has been reported nearby.
Minimum magnitude displayed is 2.5.

Coastal Water Temperatures

Place Temperature
No Stations Reporting

Nearby Weather Stations